Terminal Aerodrome Forecast
Issued by NWS Wakefield, VA

Home | Current Version | Previous Version | Text Only | Print | Product List | Glossary On
Versions: 1 2 3 4 5 6 7 8 9 10 11 12 13 14 15 16 17 18 19 20 21 22 23
857
FTUS41 KAKQ 181748
TAFORF
TAF
KORF 181748Z 1818/1918 03010KT P6SM SKC
     FM182200 06007KT P6SM SKC
     FM190600 09004KT P6SM BKN150
     FM191200 11007KT P6SM OVC040
     FM191500 14008KT 5SM -SHRA BR OVC020=

USA.gov is the U.S. government's official web portal to all federal, state and local government web resources and services.